RJNO(METAR)
12/16 15:00
RJNO 160600Z 29016G26KT 9999 FEW025 SCT040 BKNXXX 07/M04 Q1014 RMK
A2995=
戻る
トップページへ戻る
IMOC Co,.Ltd.